sensor_id;sensor_type;location;lat;lon;timestamp;P1;durP1;ratioP1;P2;durP2;ratioP2
58972;SDS011;44750;52.040;7.472;2023-02-28T00:04:29;2.28;;;1.55;;
58972;SDS011;44750;52.040;7.472;2023-02-28T00:09:30;1.98;;;1.50;;
58972;SDS011;44750;52.040;7.472;2023-02-28T00:14:30;1.50;;;1.40;;
58972;SDS011;44750;52.040;7.472;2023-02-28T00:19:30;1.48;;;1.38;;
58972;SDS011;44750;52.040;7.472;2023-02-28T00:24:30;2.85;;;1.60;;
58972;SDS011;44750;52.040;7.472;2023-02-28T00:29:31;2.65;;;1.98;;
58972;SDS011;44750;52.040;7.472;2023-02-28T00:34:31;3.80;;;2.05;;
58972;SDS011;44750;52.040;7.472;2023-02-28T00:39:33;1.67;;;1.58;;
58972;SDS011;44750;52.040;7.472;2023-02-28T00:44:34;1.67;;;1.58;;
58972;SDS011;44750;52.040;7.472;2023-02-28T00:49:34;7.55;;;1.92;;
58972;SDS011;44750;52.040;7.472;2023-02-28T00:54:35;1.10;;;1.05;;
58972;SDS011;44750;52.040;7.472;2023-02-28T00:59:35;2.10;;;1.50;;
58972;SDS011;44750;52.040;7.472;2023-02-28T01:04:35;8.57;;;1.90;;
58972;SDS011;44750;52.040;7.472;2023-02-28T01:09:36;4.88;;;1.98;;
58972;SDS011;44750;52.040;7.472;2023-02-28T01:14:36;3.37;;;1.93;;
58972;SDS011;44750;52.040;7.472;2023-02-28T01:19:37;3.20;;;1.75;;
58972;SDS011;44750;52.040;7.472;2023-02-28T01:24:37;5.05;;;2.83;;
58972;SDS011;44750;52.040;7.472;2023-02-28T01:29:37;1.20;;;1.10;;
58972;SDS011;44750;52.040;7.472;2023-02-28T01:34:38;2.70;;;1.77;;
58972;SDS011;44750;52.040;7.472;2023-02-28T01:39:38;8.40;;;2.05;;
58972;SDS011;44750;52.040;7.472;2023-02-28T01:44:58;1.95;;;1.63;;
58972;SDS011;44750;52.040;7.472;2023-02-28T01:50:03;3.58;;;2.20;;
58972;SDS011;44750;52.040;7.472;2023-02-28T02:00:07;1.73;;;1.13;;
58972;SDS011;44750;52.040;7.472;2023-02-28T02:05:16;1.15;;;1.05;;
58972;SDS011;44750;52.040;7.472;2023-02-28T02:15:37;1.67;;;1.40;;
58972;SDS011;44750;52.040;7.472;2023-02-28T02:20:51;1.67;;;1.58;;
58972;SDS011;44750;52.040;7.472;2023-02-28T02:36:54;6.82;;;2.05;;
58972;SDS011;44750;52.040;7.472;2023-02-28T02:42:11;3.78;;;1.33;;
58972;SDS011;44750;52.040;7.472;2023-02-28T02:47:17;1.73;;;1.52;;
58972;SDS011;44750;52.040;7.472;2023-02-28T02:52:21;3.90;;;1.80;;
58972;SDS011;44750;52.040;7.472;2023-02-28T02:57:32;1.65;;;1.55;;
58972;SDS011;44750;52.040;7.472;2023-02-28T03:02:38;4.13;;;2.35;;
58972;SDS011;44750;52.040;7.472;2023-02-28T03:07:40;2.10;;;1.70;;
58972;SDS011;44750;52.040;7.472;2023-02-28T03:12:41;1.77;;;1.48;;
58972;SDS011;44750;52.040;7.472;2023-02-28T03:18:10;2.22;;;1.95;;
58972;SDS011;44750;52.040;7.472;2023-02-28T03:23:33;6.57;;;1.88;;
58972;SDS011;44750;52.040;7.472;2023-02-28T03:28:57;1.92;;;1.55;;
58972;SDS011;44750;52.040;7.472;2023-02-28T03:34:12;1.85;;;1.73;;
58972;SDS011;44750;52.040;7.472;2023-02-28T03:39:18;2.95;;;2.03;;
58972;SDS011;44750;52.040;7.472;2023-02-28T03:44:29;2.03;;;1.65;;
58972;SDS011;44750;52.040;7.472;2023-02-28T03:49:40;1.58;;;1.42;;
58972;SDS011;44750;52.040;7.472;2023-02-28T03:54:49;1.60;;;1.50;;
58972;SDS011;44750;52.040;7.472;2023-02-28T03:59:59;0.98;;;0.98;;
58972;SDS011;44750;52.040;7.472;2023-02-28T04:05:31;3.40;;;1.98;;
58972;SDS011;44750;52.040;7.472;2023-02-28T04:10:32;1.02;;;1.02;;
58972;SDS011;44750;52.040;7.472;2023-02-28T04:15:32;1.33;;;1.20;;
58972;SDS011;44750;52.040;7.472;2023-02-28T04:20:32;1.45;;;1.13;;
58972;SDS011;44750;52.040;7.472;2023-02-28T04:25:33;4.40;;;2.20;;
58972;SDS011;44750;52.040;7.472;2023-02-28T04:30:33;1.42;;;1.33;;
58972;SDS011;44750;52.040;7.472;2023-02-28T04:35:33;1.98;;;1.38;;
58972;SDS011;44750;52.040;7.472;2023-02-28T04:40:33;0.77;;;0.77;;
58972;SDS011;44750;52.040;7.472;2023-02-28T04:45:35;1.80;;;1.55;;
58972;SDS011;44750;52.040;7.472;2023-02-28T04:50:35;1.05;;;1.00;;
58972;SDS011;44750;52.040;7.472;2023-02-28T04:55:35;2.53;;;1.75;;
58972;SDS011;44750;52.040;7.472;2023-02-28T05:00:36;1.48;;;1.38;;
58972;SDS011;44750;52.040;7.472;2023-02-28T05:05:39;1.77;;;1.67;;
58972;SDS011;44750;52.040;7.472;2023-02-28T05:10:39;6.68;;;1.52;;
58972;SDS011;44750;52.040;7.472;2023-02-28T05:15:42;1.08;;;1.05;;
58972;SDS011;44750;52.040;7.472;2023-02-28T05:20:42;2.50;;;1.20;;
58972;SDS011;44750;52.040;7.472;2023-02-28T05:25:42;1.30;;;1.20;;
58972;SDS011;44750;52.040;7.472;2023-02-28T05:30:43;5.50;;;1.50;;
58972;SDS011;44750;52.040;7.472;2023-02-28T05:35:43;2.50;;;1.17;;
58972;SDS011;44750;52.040;7.472;2023-02-28T05:40:43;0.95;;;0.93;;
58972;SDS011;44750;52.040;7.472;2023-02-28T05:45:43;1.25;;;1.15;;
58972;SDS011;44750;52.040;7.472;2023-02-28T05:50:44;1.67;;;1.58;;
58972;SDS011;44750;52.040;7.472;2023-02-28T05:55:44;1.95;;;1.33;;
58972;SDS011;44750;52.040;7.472;2023-02-28T06:00:44;2.45;;;1.70;;
58972;SDS011;44750;52.040;7.472;2023-02-28T06:05:44;1.73;;;1.63;;
58972;SDS011;44750;52.040;7.472;2023-02-28T06:10:45;1.23;;;1.13;;
58972;SDS011;44750;52.040;7.472;2023-02-28T06:15:45;1.45;;;1.35;;
58972;SDS011;44750;52.040;7.472;2023-02-28T06:20:52;1.70;;;1.35;;
58972;SDS011;44750;52.040;7.472;2023-02-28T06:25:53;1.50;;;1.40;;
58972;SDS011;44750;52.040;7.472;2023-02-28T06:30:53;1.73;;;1.33;;
58972;SDS011;44750;52.040;7.472;2023-02-28T06:35:54;1.30;;;1.17;;
58972;SDS011;44750;52.040;7.472;2023-02-28T06:40:54;2.97;;;2.35;;
58972;SDS011;44750;52.040;7.472;2023-02-28T06:45:57;1.50;;;1.40;;
58972;SDS011;44750;52.040;7.472;2023-02-28T06:51:06;1.13;;;1.02;;
58972;SDS011;44750;52.040;7.472;2023-02-28T06:56:12;1.33;;;1.23;;
58972;SDS011;44750;52.040;7.472;2023-02-28T07:01:14;2.22;;;1.98;;
58972;SDS011;44750;52.040;7.472;2023-02-28T07:06:15;1.67;;;1.35;;
58972;SDS011;44750;52.040;7.472;2023-02-28T07:11:15;0.73;;;0.73;;
58972;SDS011;44750;52.040;7.472;2023-02-28T07:16:16;1.50;;;1.23;;
58972;SDS011;44750;52.040;7.472;2023-02-28T07:21:17;1.53;;;1.43;;
58972;SDS011;44750;52.040;7.472;2023-02-28T07:26:18;2.20;;;1.60;;
58972;SDS011;44750;52.040;7.472;2023-02-28T07:31:19;1.17;;;1.08;;
58972;SDS011;44750;52.040;7.472;2023-02-28T07:36:19;0.90;;;0.90;;
58972;SDS011;44750;52.040;7.472;2023-02-28T07:41:20;3.33;;;1.83;;
58972;SDS011;44750;52.040;7.472;2023-02-28T07:46:22;5.32;;;1.30;;
58972;SDS011;44750;52.040;7.472;2023-02-28T07:51:22;1.80;;;1.40;;
58972;SDS011;44750;52.040;7.472;2023-02-28T07:56:22;2.40;;;1.83;;
58972;SDS011;44750;52.040;7.472;2023-02-28T08:01:23;1.17;;;1.08;;
58972;SDS011;44750;52.040;7.472;2023-02-28T08:06:23;3.17;;;1.77;;
58972;SDS011;44750;52.040;7.472;2023-02-28T08:11:25;1.08;;;0.90;;
58972;SDS011;44750;52.040;7.472;2023-02-28T08:16:25;1.30;;;1.07;;
58972;SDS011;44750;52.040;7.472;2023-02-28T08:21:25;4.60;;;1.95;;
58972;SDS011;44750;52.040;7.472;2023-02-28T08:26:25;1.35;;;1.25;;
58972;SDS011;44750;52.040;7.472;2023-02-28T08:31:26;1.63;;;1.53;;
58972;SDS011;44750;52.040;7.472;2023-02-28T08:36:26;4.35;;;1.85;;
58972;SDS011;44750;52.040;7.472;2023-02-28T08:41:26;1.00;;;0.90;;
58972;SDS011;44750;52.040;7.472;2023-02-28T08:46:27;1.48;;;1.13;;
58972;SDS011;44750;52.040;7.472;2023-02-28T08:51:27;0.73;;;0.70;;
58972;SDS011;44750;52.040;7.472;2023-02-28T08:56:28;4.55;;;1.88;;
58972;SDS011;44750;52.040;7.472;2023-02-28T09:01:29;6.05;;;1.38;;
58972;SDS011;44750;52.040;7.472;2023-02-28T09:06:30;0.95;;;0.85;;
58972;SDS011;44750;52.040;7.472;2023-02-28T09:11:31;2.40;;;1.25;;
58972;SDS011;44750;52.040;7.472;2023-02-28T09:16:32;1.17;;;1.05;;
58972;SDS011;44750;52.040;7.472;2023-02-28T09:21:34;2.97;;;0.90;;
58972;SDS011;44750;52.040;7.472;2023-02-28T09:26:35;1.00;;;1.00;;
58972;SDS011;44750;52.040;7.472;2023-02-28T09:31:37;0.57;;;0.57;;
58972;SDS011;44750;52.040;7.472;2023-02-28T09:36:37;0.70;;;0.70;;
58972;SDS011;44750;52.040;7.472;2023-02-28T09:41:39;0.70;;;0.70;;
58972;SDS011;44750;52.040;7.472;2023-02-28T09:46:43;0.70;;;0.70;;
58972;SDS011;44750;52.040;7.472;2023-02-28T09:56:58;0.60;;;0.60;;
58972;SDS011;44750;52.040;7.472;2023-02-28T10:19:23;0.70;;;0.70;;
58972;SDS011;44750;52.040;7.472;2023-02-28T10:24:03;0.40;;;0.40;;
58972;SDS011;44750;52.040;7.472;2023-02-28T10:29:24;2.95;;;0.80;;
58972;SDS011;44750;52.040;7.472;2023-02-28T10:34:25;0.60;;;0.60;;
58972;SDS011;44750;52.040;7.472;2023-02-28T10:39:39;1.30;;;0.52;;
58972;SDS011;44750;52.040;7.472;2023-02-28T10:44:41;1.75;;;0.70;;
58972;SDS011;44750;52.040;7.472;2023-02-28T10:49:46;0.40;;;0.40;;
58972;SDS011;44750;52.040;7.472;2023-02-28T10:54:48;7.35;;;1.05;;
58972;SDS011;44750;52.040;7.472;2023-02-28T10:59:52;0.82;;;0.52;;
58972;SDS011;44750;52.040;7.472;2023-02-28T11:05:24;2.42;;;0.90;;
58972;SDS011;44750;52.040;7.472;2023-02-28T11:10:28;0.68;;;0.60;;
58972;SDS011;44750;52.040;7.472;2023-02-28T11:15:32;0.57;;;0.55;;
58972;SDS011;44750;52.040;7.472;2023-02-28T11:20:33;0.45;;;0.40;;
58972;SDS011;44750;52.040;7.472;2023-02-28T11:25:35;0.60;;;0.60;;
58972;SDS011;44750;52.040;7.472;2023-02-28T11:30:38;0.50;;;0.50;;
58972;SDS011;44750;52.040;7.472;2023-02-28T11:35:40;0.38;;;0.38;;
58972;SDS011;44750;52.040;7.472;2023-02-28T11:56:25;0.95;;;0.75;;
58972;SDS011;44750;52.040;7.472;2023-02-28T12:28:25;0.77;;;0.60;;
58972;SDS011;44750;52.040;7.472;2023-02-28T12:33:34;0.75;;;0.75;;
58972;SDS011;44750;52.040;7.472;2023-02-28T12:38:43;2.03;;;0.70;;
58972;SDS011;44750;52.040;7.472;2023-02-28T12:43:49;1.75;;;0.80;;
58972;SDS011;44750;52.040;7.472;2023-02-28T12:48:56;0.90;;;0.80;;
58972;SDS011;44750;52.040;7.472;2023-02-28T12:54:12;1.75;;;1.23;;
58972;SDS011;44750;52.040;7.472;2023-02-28T13:10:13;1.85;;;0.75;;
58972;SDS011;44750;52.040;7.472;2023-02-28T13:15:19;0.88;;;0.77;;
58972;SDS011;44750;52.040;7.472;2023-02-28T13:51:45;0.40;;;0.40;;
58972;SDS011;44750;52.040;7.472;2023-02-28T13:56:50;1.38;;;0.75;;
58972;SDS011;44750;52.040;7.472;2023-02-28T14:07:24;0.88;;;0.60;;
58972;SDS011;44750;52.040;7.472;2023-02-28T14:18:13;1.13;;;0.60;;
58972;SDS011;44750;52.040;7.472;2023-02-28T14:28:50;1.13;;;0.90;;
58972;SDS011;44750;52.040;7.472;2023-02-28T14:39:46;0.40;;;0.40;;
58972;SDS011;44750;52.040;7.472;2023-02-28T14:44:53;0.95;;;0.70;;
58972;SDS011;44750;52.040;7.472;2023-02-28T14:49:56;0.88;;;0.70;;
58972;SDS011;44750;52.040;7.472;2023-02-28T14:55:09;3.10;;;1.15;;
58972;SDS011;44750;52.040;7.472;2023-02-28T15:00:20;0.75;;;0.70;;
58972;SDS011;44750;52.040;7.472;2023-02-28T15:10:26;0.70;;;0.60;;
58972;SDS011;44750;52.040;7.472;2023-02-28T15:20:33;1.27;;;0.93;;
58972;SDS011;44750;52.040;7.472;2023-02-28T15:25:38;0.60;;;0.60;;
58972;SDS011;44750;52.040;7.472;2023-02-28T15:30:49;1.00;;;0.93;;
58972;SDS011;44750;52.040;7.472;2023-02-28T15:36:03;4.63;;;0.98;;
58972;SDS011;44750;52.040;7.472;2023-02-28T15:41:21;2.58;;;1.60;;
58972;SDS011;44750;52.040;7.472;2023-02-28T15:46:24;2.15;;;1.10;;
58972;SDS011;44750;52.040;7.472;2023-02-28T15:51:28;1.33;;;0.87;;
58972;SDS011;44750;52.040;7.472;2023-02-28T15:56:43;1.15;;;1.00;;
58972;SDS011;44750;52.040;7.472;2023-02-28T16:01:45;1.48;;;1.10;;
58972;SDS011;44750;52.040;7.472;2023-02-28T16:06:46;1.50;;;0.87;;
58972;SDS011;44750;52.040;7.472;2023-02-28T16:12:00;0.73;;;0.70;;
58972;SDS011;44750;52.040;7.472;2023-02-28T16:17:03;0.75;;;0.75;;
58972;SDS011;44750;52.040;7.472;2023-02-28T16:22:05;1.77;;;0.70;;
58972;SDS011;44750;52.040;7.472;2023-02-28T16:27:05;2.63;;;0.70;;
58972;SDS011;44750;52.040;7.472;2023-02-28T16:32:06;2.90;;;0.93;;
58972;SDS011;44750;52.040;7.472;2023-02-28T16:37:13;1.00;;;0.70;;
58972;SDS011;44750;52.040;7.472;2023-02-28T16:42:18;0.57;;;0.57;;
58972;SDS011;44750;52.040;7.472;2023-02-28T16:47:24;4.72;;;1.15;;
58972;SDS011;44750;52.040;7.472;2023-02-28T16:52:25;0.93;;;0.82;;
58972;SDS011;44750;52.040;7.472;2023-02-28T16:57:25;0.70;;;0.63;;
58972;SDS011;44750;52.040;7.472;2023-02-28T17:02:25;0.88;;;0.73;;
58972;SDS011;44750;52.040;7.472;2023-02-28T17:07:25;1.42;;;0.98;;
58972;SDS011;44750;52.040;7.472;2023-02-28T17:12:25;0.85;;;0.85;;
58972;SDS011;44750;52.040;7.472;2023-02-28T17:17:26;1.15;;;1.05;;
58972;SDS011;44750;52.040;7.472;2023-02-28T17:22:26;1.40;;;1.00;;
58972;SDS011;44750;52.040;7.472;2023-02-28T17:27:26;2.00;;;1.38;;
58972;SDS011;44750;52.040;7.472;2023-02-28T17:32:26;3.30;;;1.40;;
58972;SDS011;44750;52.040;7.472;2023-02-28T17:37:27;1.58;;;1.33;;
58972;SDS011;44750;52.040;7.472;2023-02-28T17:42:28;2.67;;;1.27;;
58972;SDS011;44750;52.040;7.472;2023-02-28T17:47:28;2.13;;;1.30;;
58972;SDS011;44750;52.040;7.472;2023-02-28T17:52:28;2.30;;;1.58;;
58972;SDS011;44750;52.040;7.472;2023-02-28T17:57:29;3.45;;;1.60;;
58972;SDS011;44750;52.040;7.472;2023-02-28T18:02:29;2.40;;;1.52;;
58972;SDS011;44750;52.040;7.472;2023-02-28T18:07:29;1.23;;;1.13;;
58972;SDS011;44750;52.040;7.472;2023-02-28T18:12:30;1.33;;;1.17;;
58972;SDS011;44750;52.040;7.472;2023-02-28T18:17:30;1.30;;;1.15;;
58972;SDS011;44750;52.040;7.472;2023-02-28T18:22:30;1.67;;;1.50;;
58972;SDS011;44750;52.040;7.472;2023-02-28T18:27:31;1.15;;;0.93;;
58972;SDS011;44750;52.040;7.472;2023-02-28T18:32:31;1.55;;;1.20;;
58972;SDS011;44750;52.040;7.472;2023-02-28T18:37:31;1.00;;;0.90;;
58972;SDS011;44750;52.040;7.472;2023-02-28T18:42:31;1.00;;;1.00;;
58972;SDS011;44750;52.040;7.472;2023-02-28T18:47:33;1.40;;;1.08;;
58972;SDS011;44750;52.040;7.472;2023-02-28T18:52:33;6.03;;;4.60;;
58972;SDS011;44750;52.040;7.472;2023-02-28T18:57:34;2.67;;;1.98;;
58972;SDS011;44750;52.040;7.472;2023-02-28T19:02:35;2.60;;;1.73;;
58972;SDS011;44750;52.040;7.472;2023-02-28T19:07:36;2.35;;;1.77;;
58972;SDS011;44750;52.040;7.472;2023-02-28T19:12:36;2.33;;;1.67;;
58972;SDS011;44750;52.040;7.472;2023-02-28T19:17:37;2.20;;;2.00;;
58972;SDS011;44750;52.040;7.472;2023-02-28T19:22:38;1.13;;;1.02;;
58972;SDS011;44750;52.040;7.472;2023-02-28T19:27:38;2.47;;;1.90;;
58972;SDS011;44750;52.040;7.472;2023-02-28T19:32:38;2.75;;;2.17;;
58972;SDS011;44750;52.040;7.472;2023-02-28T19:37:39;2.25;;;1.95;;
58972;SDS011;44750;52.040;7.472;2023-02-28T19:42:39;2.70;;;2.28;;
58972;SDS011;44750;52.040;7.472;2023-02-28T19:47:43;3.35;;;2.28;;
58972;SDS011;44750;52.040;7.472;2023-02-28T19:52:43;4.15;;;2.25;;
58972;SDS011;44750;52.040;7.472;2023-02-28T19:57:43;3.33;;;2.05;;
58972;SDS011;44750;52.040;7.472;2023-02-28T20:02:44;2.55;;;1.33;;
58972;SDS011;44750;52.040;7.472;2023-02-28T20:07:44;1.60;;;1.50;;
58972;SDS011;44750;52.040;7.472;2023-02-28T20:12:44;2.67;;;2.28;;
58972;SDS011;44750;52.040;7.472;2023-02-28T20:17:45;5.43;;;2.95;;
58972;SDS011;44750;52.040;7.472;2023-02-28T20:22:45;3.15;;;2.03;;
58972;SDS011;44750;52.040;7.472;2023-02-28T20:27:45;1.95;;;1.73;;
58972;SDS011;44750;52.040;7.472;2023-02-28T20:32:46;1.60;;;1.50;;
58972;SDS011;44750;52.040;7.472;2023-02-28T20:37:46;1.60;;;1.25;;
58972;SDS011;44750;52.040;7.472;2023-02-28T20:42:46;3.33;;;2.00;;
58972;SDS011;44750;52.040;7.472;2023-02-28T20:47:46;20.67;;;2.88;;
58972;SDS011;44750;52.040;7.472;2023-02-28T20:52:47;4.55;;;2.92;;
58972;SDS011;44750;52.040;7.472;2023-02-28T20:57:47;4.15;;;2.05;;
58972;SDS011;44750;52.040;7.472;2023-02-28T21:02:47;5.78;;;2.97;;
58972;SDS011;44750;52.040;7.472;2023-02-28T21:07:47;11.55;;;2.47;;
58972;SDS011;44750;52.040;7.472;2023-02-28T21:12:48;3.90;;;2.25;;
58972;SDS011;44750;52.040;7.472;2023-02-28T21:17:49;3.17;;;2.17;;
58972;SDS011;44750;52.040;7.472;2023-02-28T21:22:49;3.95;;;2.00;;
58972;SDS011;44750;52.040;7.472;2023-02-28T21:27:50;3.75;;;2.08;;
58972;SDS011;44750;52.040;7.472;2023-02-28T21:32:50;3.85;;;2.47;;
58972;SDS011;44750;52.040;7.472;2023-02-28T21:37:50;2.60;;;2.03;;
58972;SDS011;44750;52.040;7.472;2023-02-28T21:42:51;2.15;;;1.70;;
58972;SDS011;44750;52.040;7.472;2023-02-28T21:47:51;2.75;;;2.08;;
58972;SDS011;44750;52.040;7.472;2023-02-28T21:52:51;3.95;;;2.45;;
58972;SDS011;44750;52.040;7.472;2023-02-28T21:57:51;1.83;;;1.65;;
58972;SDS011;44750;52.040;7.472;2023-02-28T22:02:52;2.25;;;2.05;;
58972;SDS011;44750;52.040;7.472;2023-02-28T22:07:52;3.20;;;2.00;;
58972;SDS011;44750;52.040;7.472;2023-02-28T22:12:52;3.08;;;1.85;;
58972;SDS011;44750;52.040;7.472;2023-02-28T22:17:52;2.35;;;1.63;;
58972;SDS011;44750;52.040;7.472;2023-02-28T22:22:53;1.90;;;1.58;;
58972;SDS011;44750;52.040;7.472;2023-02-28T22:27:53;2.63;;;1.73;;
58972;SDS011;44750;52.040;7.472;2023-02-28T22:32:54;2.40;;;2.00;;
58972;SDS011;44750;52.040;7.472;2023-02-28T22:37:54;2.17;;;1.73;;
58972;SDS011;44750;52.040;7.472;2023-02-28T22:42:54;2.22;;;2.03;;
58972;SDS011;44750;52.040;7.472;2023-02-28T22:47:55;2.35;;;1.58;;
58972;SDS011;44750;52.040;7.472;2023-02-28T22:52:55;3.40;;;2.50;;
58972;SDS011;44750;52.040;7.472;2023-02-28T22:57:55;3.43;;;2.83;;
58972;SDS011;44750;52.040;7.472;2023-02-28T23:02:55;6.10;;;3.78;;
58972;SDS011;44750;52.040;7.472;2023-02-28T23:07:56;1.60;;;1.50;;
58972;SDS011;44750;52.040;7.472;2023-02-28T23:12:56;2.72;;;2.45;;
58972;SDS011;44750;52.040;7.472;2023-02-28T23:17:56;5.53;;;2.60;;
58972;SDS011;44750;52.040;7.472;2023-02-28T23:22:56;4.67;;;2.83;;
58972;SDS011;44750;52.040;7.472;2023-02-28T23:27:57;3.13;;;2.45;;
58972;SDS011;44750;52.040;7.472;2023-02-28T23:32:57;3.20;;;2.42;;
58972;SDS011;44750;52.040;7.472;2023-02-28T23:37:57;3.85;;;1.98;;
58972;SDS011;44750;52.040;7.472;2023-02-28T23:42:57;2.43;;;1.77;;
58972;SDS011;44750;52.040;7.472;2023-02-28T23:47:58;1.40;;;1.30;;
58972;SDS011;44750;52.040;7.472;2023-02-28T23:52:58;1.85;;;1.48;;
58972;SDS011;44750;52.040;7.472;2023-02-28T23:57:58;1.48;;;1.27;;
